createdAt,value
2019-05-07T00:00:12.777Z,3.8
2019-05-07T00:15:12.778Z,3.7
2019-05-07T00:30:12.823Z,3.5
2019-05-07T00:45:21.359Z,3.4
2019-05-07T01:00:13.273Z,3.4
2019-05-07T01:15:04.574Z,3.3
2019-05-07T01:30:04.431Z,3
2019-05-07T01:45:04.499Z,3
2019-05-07T02:00:04.519Z,3
2019-05-07T02:15:04.603Z,2.8
2019-05-07T02:30:04.969Z,2.6
2019-05-07T02:45:05.164Z,2.6
2019-05-07T03:00:05.100Z,2.7
2019-05-07T03:15:05.041Z,2.7
2019-05-07T03:30:04.902Z,2.5
2019-05-07T03:45:04.806Z,2.5
2019-05-07T04:00:04.839Z,2.3
2019-05-07T04:15:04.920Z,2.4
2019-05-07T04:30:04.933Z,2.3
2019-05-07T04:45:04.942Z,2.3
2019-05-07T05:00:05.267Z,2.3
2019-05-07T05:15:05.266Z,2.4
2019-05-07T05:30:05.298Z,2.4
2019-05-07T05:45:06.289Z,2.6
2019-05-07T06:00:06.307Z,2.9
2019-05-07T06:15:06.344Z,3.3
2019-05-07T06:30:06.356Z,3.7
2019-05-07T06:45:07.815Z,4.1
2019-05-07T07:00:07.906Z,5.3
2019-05-07T07:15:07.956Z,6.3
2019-05-07T07:30:08.016Z,7.3
2019-05-07T07:45:08.013Z,7.9
2019-05-07T08:00:12.077Z,8.3
2019-05-07T08:15:21.716Z,8.9
2019-05-07T08:30:12.003Z,8.6
2019-05-07T08:45:03.744Z,8.6
2019-05-07T09:00:06.395Z,9.5
2019-05-07T09:15:07.031Z,9.4
2019-05-07T09:30:12.927Z,9.7
2019-05-07T09:45:03.215Z,10
2019-05-07T10:00:07.518Z,10.4
2019-05-07T10:15:07.922Z,10.8
2019-05-07T10:30:08.342Z,11
2019-05-07T10:45:10.412Z,11
2019-05-07T11:00:12.568Z,11.1
2019-05-07T11:15:08.017Z,11.1
2019-05-07T11:30:12.032Z,11.2
2019-05-07T11:45:12.357Z,11.5
2019-05-07T12:00:10.068Z,11.2
2019-05-07T12:15:12.685Z,11.2
2019-05-07T12:30:12.350Z,11.6
2019-05-07T12:45:03.117Z,11.9
2019-05-07T13:00:04.278Z,12
2019-05-07T13:15:04.342Z,12.3
2019-05-07T13:30:04.420Z,12.6
2019-05-07T13:45:04.903Z,12.5
2019-05-07T14:00:05.333Z,12.4
2019-05-07T14:15:05.289Z,12.3
2019-05-07T14:30:06.728Z,12.5
2019-05-07T14:45:07.902Z,12
2019-05-07T15:00:08.874Z,11.9
2019-05-07T15:15:08.527Z,11.9
2019-05-07T15:30:11.602Z,12.2
2019-05-07T15:45:06.860Z,11.9
2019-05-07T16:00:09.980Z,11.7
2019-05-07T16:15:13.968Z,11.6
2019-05-07T16:30:02.584Z,11.6
2019-05-07T16:45:03.413Z,11.8
2019-05-07T17:00:03.462Z,11.5
2019-05-07T17:15:04.008Z,11.4
2019-05-07T17:30:04.357Z,11.2
2019-05-07T17:45:06.214Z,10.9
2019-05-07T18:00:07.311Z,10.5
2019-05-07T18:15:08.549Z,10
2019-05-07T18:30:09.128Z,9.6
2019-05-07T18:45:12.584Z,9.2
2019-05-07T19:00:06.276Z,9
2019-05-07T19:15:06.254Z,8.7
2019-05-07T19:30:06.270Z,8.4
2019-05-07T19:45:06.956Z,8.1
2019-05-07T20:00:06.582Z,7.9
2019-05-07T20:15:07.626Z,7.7
2019-05-07T20:30:08.223Z,7.5
2019-05-07T20:45:08.352Z,7.3
2019-05-07T21:00:08.558Z,7.1
2019-05-07T21:15:12.640Z,6.7
2019-05-07T21:30:13.268Z,6.4
2019-05-07T21:45:12.359Z,6.2
2019-05-07T22:00:12.911Z,6.3
2019-05-07T22:15:04.681Z,6
2019-05-07T22:30:12.705Z,5.9
2019-05-07T22:45:12.524Z,6.1
2019-05-07T23:00:12.534Z,6.1
2019-05-07T23:15:06.661Z,5.8
2019-05-07T23:30:06.243Z,5.5
2019-05-07T23:45:06.556Z,5.5
